createdAt,value
2023-05-13T00:01:29.707Z,7.32
2023-05-13T00:03:59.546Z,6.25
2023-05-13T00:06:41.206Z,6.30
2023-05-13T00:09:11.401Z,5.88
2023-05-13T00:11:41.014Z,5.53
2023-05-13T00:14:16.854Z,4.85
2023-05-13T00:16:51.329Z,5.40
2023-05-13T00:21:58.293Z,4.80
2023-05-13T00:24:27.816Z,4.70
2023-05-13T00:26:57.631Z,4.90
2023-05-13T00:29:27.127Z,4.90
2023-05-13T00:31:56.484Z,4.60
2023-05-13T00:34:31.231Z,4.72
2023-05-13T00:37:02.594Z,4.90
2023-05-13T00:39:32.327Z,4.40
2023-05-13T00:42:04.094Z,4.80
2023-05-13T00:44:40.547Z,5.22
2023-05-13T00:47:10.455Z,4.63
2023-05-13T00:49:45.750Z,4.70
2023-05-13T00:52:17.139Z,4.50
2023-05-13T00:54:51.534Z,4.72
2023-05-13T00:57:21.017Z,4.60
2023-05-13T00:59:50.327Z,4.45
2023-05-13T01:02:36.610Z,4.72
2023-05-13T01:05:19.677Z,3.92
2023-05-13T01:08:20.017Z,3.95
2023-05-13T01:10:57.264Z,4.15
2023-05-13T01:16:20.552Z,4.13
2023-05-13T01:18:58.985Z,3.95
2023-05-13T01:21:31.047Z,3.80
2023-05-13T01:24:00.874Z,3.50
2023-05-13T01:26:30.390Z,3.80
2023-05-13T01:29:00.766Z,4.13
2023-05-13T01:31:31.856Z,3.20
2023-05-13T01:36:44.807Z,3.75
2023-05-13T01:39:15.425Z,5.00
2023-05-13T01:41:44.848Z,3.90
2023-05-13T01:44:19.277Z,4.38
2023-05-13T01:46:50.083Z,4.03
2023-05-13T01:49:38.157Z,4.88
2023-05-13T01:52:11.615Z,4.90
2023-05-13T01:54:47.218Z,4.47
2023-05-13T01:57:17.758Z,5.68
2023-05-13T01:59:47.485Z,5.53
2023-05-13T02:02:17.342Z,5.43
2023-05-13T02:04:51.789Z,5.05
2023-05-13T02:07:23.438Z,4.78
2023-05-13T02:10:04.305Z,5.07
2023-05-13T02:12:41.632Z,4.78
2023-05-13T02:15:12.702Z,4.50
2023-05-13T02:17:44.157Z,4.80
2023-05-13T02:20:19.066Z,4.75
2023-05-13T02:22:50.509Z,4.65
2023-05-13T02:25:25.591Z,4.68
2023-05-13T02:27:55.030Z,4.35
2023-05-13T02:30:31.691Z,5.07
2023-05-13T02:33:01.553Z,5.88
2023-05-13T02:35:31.587Z,4.90
2023-05-13T02:38:07.906Z,4.40
2023-05-13T02:40:37.344Z,4.88
2023-05-13T02:43:06.873Z,4.50
2023-05-13T02:45:58.052Z,4.80
2023-05-13T02:48:27.497Z,4.40
2023-05-13T02:50:56.935Z,4.90
2023-05-13T02:53:29.565Z,4.95
2023-05-13T02:56:09.129Z,3.78
2023-05-13T02:58:39.816Z,3.80
2023-05-13T03:01:09.264Z,4.07
2023-05-13T03:03:38.754Z,4.45
2023-05-13T03:06:09.170Z,4.32
2023-05-13T03:08:40.477Z,3.95
2023-05-13T03:11:15.039Z,4.10
2023-05-13T03:13:44.487Z,3.88
2023-05-13T03:16:16.891Z,4.45
2023-05-13T03:18:46.696Z,3.95
2023-05-13T03:21:16.070Z,4.03
2023-05-13T03:23:59.031Z,4.20
2023-05-13T03:26:28.658Z,4.10
2023-05-13T03:28:58.323Z,3.33
2023-05-13T03:31:38.022Z,3.75
2023-05-13T03:34:13.244Z,4.60
2023-05-13T03:36:42.818Z,3.90
2023-05-13T03:39:15.954Z,3.72
2023-05-13T03:41:46.025Z,3.42
2023-05-13T03:44:16.018Z,3.83
2023-05-13T03:46:52.278Z,3.15
2023-05-13T03:49:22.149Z,3.15
2023-05-13T03:51:51.767Z,3.08
2023-05-13T03:54:23.704Z,3.20
2023-05-13T03:59:21.840Z,3.25
2023-05-13T04:01:51.418Z,2.95
2023-05-13T04:04:20.743Z,3.58
2023-05-13T04:06:49.992Z,3.20
2023-05-13T04:09:19.948Z,2.97
2023-05-13T04:11:56.894Z,3.03
2023-05-13T04:14:26.335Z,3.03
2023-05-13T04:16:55.744Z,3.38
2023-05-13T04:19:26.718Z,3.05
2023-05-13T04:21:56.144Z,3.03
2023-05-13T04:24:26.096Z,2.45
2023-05-13T04:26:58.934Z,3.15
2023-05-13T04:29:29.722Z,2.83
2023-05-13T04:31:59.309Z,3.03
2023-05-13T04:34:28.955Z,3.20
2023-05-13T04:36:58.387Z,3.05
2023-05-13T04:39:27.833Z,2.75
2023-05-13T04:42:00.893Z,2.55
2023-05-13T04:44:35.606Z,2.95
2023-05-13T04:47:05.140Z,3.22
2023-05-13T04:52:16.387Z,2.50
2023-05-13T04:54:45.994Z,2.38
2023-05-13T04:57:17.372Z,2.90
2023-05-13T04:59:46.801Z,2.70
2023-05-13T05:02:17.418Z,2.80
2023-05-13T05:04:48.892Z,2.55
2023-05-13T05:07:23.427Z,2.28
2023-05-13T05:09:53.990Z,2.70
2023-05-13T05:12:26.007Z,1.88
2023-05-13T05:14:55.333Z,2.40
2023-05-13T05:17:24.919Z,2.97
2023-05-13T05:19:59.722Z,2.67
2023-05-13T05:22:29.316Z,2.70
2023-05-13T05:24:59.356Z,2.40
2023-05-13T05:27:40.886Z,2.70
2023-05-13T05:30:12.164Z,2.70
2023-05-13T05:32:42.893Z,2.72
2023-05-13T05:35:13.122Z,2.70
2023-05-13T05:37:42.622Z,2.45
2023-05-13T05:40:12.995Z,2.92
2023-05-13T05:42:44.608Z,2.90
2023-05-13T05:45:14.184Z,2.53
2023-05-13T05:47:44.850Z,2.27
2023-05-13T05:50:20.675Z,2.30
2023-05-13T05:52:50.472Z,2.50
2023-05-13T05:55:19.779Z,2.28
2023-05-13T05:58:07.605Z,2.65
2023-05-13T06:00:39.443Z,2.33
2023-05-13T06:03:08.893Z,2.53
2023-05-13T06:05:38.849Z,2.05
2023-05-13T06:08:08.150Z,3.10
2023-05-13T06:10:38.274Z,2.30
2023-05-13T06:13:09.517Z,2.28
2023-05-13T06:15:39.945Z,2.08
2023-05-13T06:18:09.553Z,2.00
2023-05-13T06:20:39.295Z,2.50
2023-05-13T06:23:08.755Z,2.00
2023-05-13T06:25:43.155Z,2.30
2023-05-13T06:28:15.346Z,2.08
2023-05-13T06:30:45.707Z,2.22
2023-05-13T06:33:20.107Z,2.22
2023-05-13T06:35:49.908Z,2.58
2023-05-13T06:38:21.754Z,2.35
2023-05-13T06:40:53.111Z,2.20
2023-05-13T06:43:30.746Z,2.40
2023-05-13T06:46:02.142Z,2.60
2023-05-13T06:48:36.852Z,2.20
2023-05-13T06:51:07.626Z,2.20
2023-05-13T06:53:48.005Z,2.20
2023-05-13T06:56:17.638Z,2.75
2023-05-13T06:58:49.242Z,2.30
2023-05-13T07:01:18.978Z,3.00
2023-05-13T07:03:48.572Z,2.67
2023-05-13T07:06:18.070Z,2.25
2023-05-13T07:08:47.846Z,2.47
2023-05-13T07:11:17.356Z,2.95
2023-05-13T07:13:48.622Z,2.35
2023-05-13T07:16:19.040Z,2.28
2023-05-13T07:18:48.479Z,2.35
2023-05-13T07:21:17.934Z,2.55
2023-05-13T07:23:54.498Z,2.70
2023-05-13T07:26:28.790Z,2.50
2023-05-13T07:29:01.625Z,2.08
2023-05-13T07:31:36.099Z,2.38
2023-05-13T07:34:05.780Z,2.10
2023-05-13T07:36:35.298Z,2.60
2023-05-13T07:39:04.757Z,2.55
2023-05-13T07:41:40.502Z,2.40
2023-05-13T07:44:12.885Z,4.07
2023-05-13T07:46:42.272Z,2.97
2023-05-13T07:49:16.889Z,5.97
2023-05-13T07:51:46.924Z,2.47
2023-05-13T07:54:16.403Z,2.60
2023-05-13T07:56:47.696Z,2.85
2023-05-13T07:59:24.521Z,2.40
2023-05-13T08:01:53.969Z,2.70
2023-05-13T08:04:23.432Z,2.20
2023-05-13T08:06:53.335Z,2.70
2023-05-13T08:09:22.736Z,2.80
2023-05-13T08:11:52.194Z,2.10
2023-05-13T08:14:22.978Z,1.92
2023-05-13T08:16:54.808Z,1.92
2023-05-13T08:19:24.251Z,2.90
2023-05-13T08:21:53.590Z,2.03
2023-05-13T08:24:28.229Z,2.35
2023-05-13T08:26:57.857Z,2.42
2023-05-13T08:29:27.344Z,2.40
2023-05-13T08:32:04.457Z,2.30
2023-05-13T08:34:39.834Z,2.63
2023-05-13T08:37:09.289Z,2.38
2023-05-13T08:39:38.697Z,2.20
2023-05-13T08:42:12.185Z,2.67
2023-05-13T08:44:45.764Z,2.97
2023-05-13T08:47:26.823Z,2.60
2023-05-13T08:50:01.815Z,2.90
2023-05-13T08:52:31.967Z,2.95
2023-05-13T08:55:02.158Z,2.70
2023-05-13T08:57:33.876Z,3.45
2023-05-13T09:00:03.500Z,2.55
2023-05-13T09:02:37.250Z,2.55
2023-05-13T09:05:12.721Z,2.60
2023-05-13T09:07:42.112Z,2.60
2023-05-13T09:10:12.810Z,2.80
2023-05-13T09:12:49.653Z,2.80
2023-05-13T09:15:21.524Z,2.60
2023-05-13T09:17:55.794Z,3.00
2023-05-13T09:20:26.373Z,3.45
2023-05-13T09:23:00.556Z,2.80
2023-05-13T09:25:30.817Z,2.50
2023-05-13T09:28:01.356Z,2.13
2023-05-13T09:30:32.288Z,2.38
2023-05-13T09:33:11.960Z,2.30
2023-05-13T09:35:44.154Z,2.70
2023-05-13T09:38:23.514Z,2.10
2023-05-13T09:40:54.571Z,2.10
2023-05-13T09:46:06.201Z,2.20
2023-05-13T09:48:45.324Z,2.60
2023-05-13T09:51:17.770Z,2.30
2023-05-13T09:53:49.475Z,2.35
2023-05-13T09:56:23.597Z,2.50
2023-05-13T09:58:56.207Z,2.70
2023-05-13T10:01:29.137Z,3.40
2023-05-13T10:04:01.618Z,2.30
2023-05-13T10:06:33.568Z,2.75
2023-05-13T10:11:37.352Z,2.30
2023-05-13T10:14:13.851Z,2.60
2023-05-13T10:16:43.661Z,2.42
2023-05-13T10:19:20.460Z,2.60
2023-05-13T10:21:51.609Z,3.15
2023-05-13T10:24:22.213Z,1.83
2023-05-13T10:26:54.722Z,2.50
2023-05-13T10:29:25.304Z,2.25
2023-05-13T10:31:56.087Z,3.70
2023-05-13T10:34:33.262Z,2.00
2023-05-13T10:37:16.888Z,1.58
2023-05-13T10:40:13.648Z,2.38
2023-05-13T10:42:44.491Z,2.17
2023-05-13T10:45:14.218Z,2.10
2023-05-13T10:47:43.532Z,2.45
2023-05-13T10:50:32.557Z,2.30
2023-05-13T10:53:04.494Z,2.28
2023-05-13T10:55:43.059Z,2.50
2023-05-13T10:58:13.961Z,2.42
2023-05-13T11:00:45.539Z,2.33
2023-05-13T11:06:04.115Z,2.30
2023-05-13T11:08:40.586Z,2.67
2023-05-13T11:14:11.052Z,2.42
2023-05-13T11:16:40.581Z,2.55
2023-05-13T11:19:21.351Z,2.42
2023-05-13T11:21:55.230Z,2.60
2023-05-13T11:24:28.636Z,2.50
2023-05-13T11:26:59.466Z,2.60
2023-05-13T11:29:34.590Z,2.33
2023-05-13T11:32:10.647Z,2.70
2023-05-13T11:34:40.570Z,2.33
2023-05-13T11:37:17.782Z,2.08
2023-05-13T11:39:47.224Z,2.40
2023-05-13T11:42:16.843Z,2.40
2023-05-13T11:44:48.678Z,2.88
2023-05-13T11:47:28.941Z,1.95
2023-05-13T11:49:58.852Z,2.15
2023-05-13T11:52:30.505Z,1.92
2023-05-13T11:55:00.381Z,2.25
2023-05-13T11:57:32.382Z,2.65
2023-05-13T12:00:04.679Z,2.38
2023-05-13T12:02:41.138Z,2.35
2023-05-13T12:05:16.213Z,2.47
2023-05-13T12:07:47.767Z,2.70
2023-05-13T12:10:17.682Z,1.98
2023-05-13T12:12:48.228Z,2.42
2023-05-13T12:15:25.251Z,2.27
2023-05-13T12:17:55.676Z,2.63
2023-05-13T12:20:26.330Z,2.00
2023-05-13T12:23:01.315Z,2.70
2023-05-13T12:25:45.450Z,1.95
2023-05-13T12:28:21.380Z,2.20
2023-05-13T12:30:56.149Z,3.28
2023-05-13T12:33:27.799Z,2.25
2023-05-13T12:36:18.018Z,2.08
2023-05-13T12:39:00.857Z,2.40
2023-05-13T12:51:36.725Z,2.15
2023-05-13T12:54:06.542Z,2.47
2023-05-13T12:56:36.226Z,2.05
2023-05-13T12:59:11.242Z,2.38
2023-05-13T13:01:41.831Z,2.30
2023-05-13T13:04:11.322Z,2.08
2023-05-13T13:06:42.796Z,2.17
2023-05-13T13:09:12.240Z,1.98
2023-05-13T13:11:41.741Z,2.72
2023-05-13T13:16:53.645Z,2.20
2023-05-13T13:19:23.291Z,1.25
2023-05-13T13:21:54.797Z,2.40
2023-05-13T13:26:53.807Z,2.50
2023-05-13T13:29:28.554Z,1.90
2023-05-13T13:31:57.976Z,2.53
2023-05-13T13:34:32.798Z,1.58
2023-05-13T13:37:04.248Z,1.80
2023-05-13T13:39:38.958Z,2.17
2023-05-13T13:42:08.446Z,2.05
2023-05-13T13:44:39.204Z,2.60
2023-05-13T13:47:08.800Z,2.20
2023-05-13T13:49:38.163Z,2.38
2023-05-13T13:52:10.759Z,1.80
2023-05-13T13:54:40.221Z,2.85
2023-05-13T13:57:09.522Z,3.45
2023-05-13T13:59:38.803Z,2.83
2023-05-13T14:02:09.195Z,3.53
2023-05-13T14:04:39.318Z,2.20
2023-05-13T14:07:10.604Z,2.60
2023-05-13T14:12:09.171Z,1.48
2023-05-13T14:14:38.575Z,2.25
2023-05-13T14:17:08.208Z,2.40
2023-05-13T14:19:39.932Z,2.28
2023-05-13T14:22:11.647Z,2.30
2023-05-13T14:24:41.063Z,2.08
2023-05-13T14:27:10.240Z,2.50
2023-05-13T14:29:39.613Z,2.25
2023-05-13T14:32:09.713Z,2.25
2023-05-13T14:34:44.725Z,2.47
2023-05-13T14:37:16.208Z,2.45
2023-05-13T14:39:50.829Z,2.50
2023-05-13T14:42:20.828Z,2.53
2023-05-13T14:44:50.250Z,2.92
2023-05-13T14:47:20.877Z,3.30
2023-05-13T14:49:50.295Z,2.58
2023-05-13T14:52:21.569Z,1.77
2023-05-13T14:54:51.517Z,2.10
2023-05-13T14:57:21.181Z,2.40
2023-05-13T14:59:55.909Z,2.30
2023-05-13T15:02:26.263Z,2.63
2023-05-13T15:04:55.662Z,2.38
2023-05-13T15:07:27.767Z,2.47
2023-05-13T15:09:57.268Z,2.30
2023-05-13T15:12:29.007Z,2.30
2023-05-13T15:15:00.584Z,2.00
2023-05-13T15:17:31.850Z,2.38
2023-05-13T15:20:01.556Z,1.98
2023-05-13T15:22:38.201Z,1.88
2023-05-13T15:25:12.875Z,1.95
2023-05-13T15:27:42.993Z,1.88
2023-05-13T15:30:14.172Z,2.53
2023-05-13T15:32:43.935Z,2.20
2023-05-13T15:35:18.812Z,2.40
2023-05-13T15:37:50.118Z,2.40
2023-05-13T15:40:19.558Z,1.60
2023-05-13T15:42:50.078Z,2.20
2023-05-13T15:45:19.770Z,1.83
2023-05-13T15:47:49.193Z,1.98
2023-05-13T15:50:18.680Z,2.20
2023-05-13T15:52:55.462Z,2.15
2023-05-13T15:55:30.964Z,2.22
2023-05-13T15:58:00.521Z,2.08
2023-05-13T16:00:29.737Z,2.58
2023-05-13T16:03:09.490Z,3.10
2023-05-13T16:05:38.938Z,3.00
2023-05-13T16:08:10.290Z,2.30
2023-05-13T16:10:39.694Z,2.63
2023-05-13T16:13:09.323Z,6.05
2023-05-13T16:15:38.777Z,4.32
2023-05-13T16:18:08.615Z,3.55
2023-05-13T16:20:38.369Z,3.00
2023-05-13T16:23:20.004Z,3.85
2023-05-13T16:28:20.960Z,3.20
2023-05-13T16:30:51.047Z,3.63
2023-05-13T16:33:28.597Z,3.55
2023-05-13T16:35:57.980Z,3.20
2023-05-13T16:38:27.538Z,3.88
2023-05-13T16:40:59.685Z,2.40
2023-05-13T16:43:29.252Z,3.03
2023-05-13T16:45:58.605Z,2.83
2023-05-13T16:48:28.077Z,2.30
2023-05-13T16:51:04.046Z,3.10
2023-05-13T16:53:34.219Z,2.85
2023-05-13T16:56:10.507Z,2.75
2023-05-13T16:58:44.689Z,2.90
2023-05-13T17:01:14.087Z,2.58
2023-05-13T17:03:43.472Z,2.80
2023-05-13T17:06:19.904Z,2.50
2023-05-13T17:08:49.524Z,2.85
2023-05-13T17:11:21.221Z,2.90
2023-05-13T17:13:50.920Z,3.20
2023-05-13T17:16:20.319Z,2.67
2023-05-13T17:18:49.650Z,2.97
2023-05-13T17:21:19.066Z,2.90
2023-05-13T17:23:53.852Z,3.53
2023-05-13T17:26:41.562Z,2.95
2023-05-13T17:29:11.130Z,3.20
2023-05-13T17:31:41.665Z,2.88
2023-05-13T17:34:11.208Z,3.03
2023-05-13T17:36:40.483Z,3.17
2023-05-13T17:39:10.782Z,3.17
2023-05-13T17:41:47.392Z,3.53
2023-05-13T17:44:17.230Z,3.05
2023-05-13T17:49:27.149Z,3.70
2023-05-13T17:51:56.647Z,3.35
2023-05-13T17:54:25.882Z,3.47
2023-05-13T17:56:57.238Z,3.30
2023-05-13T17:59:26.813Z,3.78
2023-05-13T18:02:01.682Z,3.17
2023-05-13T18:04:31.471Z,3.97
2023-05-13T18:07:00.992Z,3.60
2023-05-13T18:09:30.701Z,4.88
2023-05-13T18:12:02.967Z,4.35
2023-05-13T18:17:08.203Z,3.70
2023-05-13T18:19:37.498Z,3.90
2023-05-13T18:22:09.628Z,3.60
2023-05-13T18:24:39.663Z,4.35
2023-05-13T18:27:11.676Z,4.60
2023-05-13T18:29:41.224Z,4.95
2023-05-13T18:32:10.704Z,3.90
2023-05-13T18:34:45.191Z,4.10
2023-05-13T18:37:14.675Z,4.50
2023-05-13T18:39:49.037Z,3.63
2023-05-13T18:42:20.706Z,3.20
2023-05-13T18:44:50.386Z,3.35
2023-05-13T18:47:19.860Z,3.65
2023-05-13T18:49:49.223Z,3.25
2023-05-13T18:52:18.604Z,4.15
2023-05-13T18:54:48.261Z,3.78
2023-05-13T18:57:20.488Z,4.00
2023-05-13T19:00:01.425Z,3.45
2023-05-13T19:02:40.657Z,3.78
2023-05-13T19:05:11.092Z,2.38
2023-05-13T19:07:40.648Z,3.60
2023-05-13T19:10:15.753Z,3.35
2023-05-13T19:12:52.308Z,3.45
2023-05-13T19:15:23.199Z,3.20
2023-05-13T19:17:53.549Z,3.67
2023-05-13T19:20:23.180Z,3.35
2023-05-13T19:22:52.661Z,3.42
2023-05-13T19:25:22.627Z,3.00
2023-05-13T19:27:54.113Z,3.53
2023-05-13T19:30:24.132Z,4.05
2023-05-13T19:32:53.722Z,3.50
2023-05-13T19:35:23.209Z,3.83
2023-05-13T19:37:52.705Z,3.38
2023-05-13T19:40:26.656Z,3.63
2023-05-13T19:45:38.288Z,4.03
2023-05-13T19:48:08.153Z,3.33
2023-05-13T19:50:37.744Z,3.28
2023-05-13T19:53:07.166Z,2.65
2023-05-13T19:55:41.743Z,3.78
2023-05-13T19:58:15.963Z,2.30
2023-05-13T20:00:46.047Z,1.85
2023-05-13T20:03:15.466Z,3.22
2023-05-13T20:05:44.964Z,2.40
2023-05-13T20:08:14.342Z,2.85
2023-05-13T20:10:49.369Z,2.53
2023-05-13T20:13:26.350Z,2.72
2023-05-13T20:15:55.823Z,2.38
2023-05-13T20:18:25.335Z,2.70
2023-05-13T20:21:00.523Z,2.80
2023-05-13T20:23:30.028Z,2.15
2023-05-13T20:25:59.433Z,2.60
2023-05-13T20:28:30.703Z,2.30
2023-05-13T20:31:00.134Z,2.50
2023-05-13T20:33:34.535Z,3.10
2023-05-13T20:36:05.999Z,2.92
2023-05-13T20:38:42.008Z,1.98
2023-05-13T20:43:54.213Z,2.47
2023-05-13T20:46:23.621Z,2.15
2023-05-13T20:51:29.323Z,2.15
2023-05-13T20:56:45.078Z,2.65
2023-05-13T21:01:51.255Z,2.70
2023-05-13T21:04:20.629Z,3.00
2023-05-13T21:06:50.163Z,2.80
2023-05-13T21:09:19.615Z,3.53
2023-05-13T21:11:53.992Z,2.55
2023-05-13T21:14:34.658Z,2.90
2023-05-13T21:17:04.237Z,3.17
2023-05-13T21:19:33.485Z,2.55
2023-05-13T21:22:10.584Z,2.10
2023-05-13T21:24:45.422Z,1.52
2023-05-13T21:27:21.821Z,1.55
2023-05-13T21:29:53.455Z,2.45
2023-05-13T21:32:27.944Z,1.45
2023-05-13T21:35:02.310Z,1.90
2023-05-13T21:37:34.282Z,2.28
2023-05-13T21:40:03.676Z,1.48
2023-05-13T21:45:12.417Z,1.95
2023-05-13T21:47:41.800Z,1.42
2023-05-13T21:50:12.372Z,2.25
2023-05-13T21:52:41.728Z,1.70
2023-05-13T21:55:11.901Z,1.60
2023-05-13T21:57:46.382Z,2.33
2023-05-13T22:00:21.205Z,2.30
2023-05-13T22:02:57.802Z,2.05
2023-05-13T22:05:27.432Z,1.83
2023-05-13T22:07:56.814Z,1.52
2023-05-13T22:10:26.280Z,2.15
2023-05-13T22:12:55.617Z,2.45
2023-05-13T22:18:09.041Z,2.10
2023-05-13T22:20:38.411Z,1.80
2023-05-13T22:23:08.300Z,1.40
2023-05-13T22:25:37.528Z,2.55
2023-05-13T22:28:07.665Z,1.95
2023-05-13T22:30:51.316Z,1.60
2023-05-13T22:33:25.658Z,1.85
2023-05-13T22:35:55.047Z,1.70
2023-05-13T22:38:25.037Z,1.60
2023-05-13T22:40:54.567Z,2.05
2023-05-13T22:43:23.936Z,1.83
2023-05-13T22:46:00.727Z,1.48
2023-05-13T22:48:30.342Z,1.50
2023-05-13T22:50:59.590Z,1.38
2023-05-13T22:53:28.979Z,2.13
2023-05-13T22:56:09.939Z,1.90
2023-05-13T22:58:44.415Z,1.83
2023-05-13T23:01:17.204Z,1.90
2023-05-13T23:03:46.727Z,1.77
2023-05-13T23:06:16.162Z,1.98
2023-05-13T23:08:45.613Z,1.45
2023-05-13T23:11:14.985Z,1.45
2023-05-13T23:13:49.383Z,1.70
2023-05-13T23:16:21.016Z,1.40
2023-05-13T23:21:19.394Z,1.40
2023-05-13T23:26:33.818Z,2.08
2023-05-13T23:29:03.591Z,1.70
2023-05-13T23:31:35.073Z,2.22
2023-05-13T23:34:04.567Z,1.80
2023-05-13T23:36:33.853Z,1.38
2023-05-13T23:39:03.319Z,2.20
2023-05-13T23:44:14.336Z,1.60
2023-05-13T23:46:50.640Z,2.15
2023-05-13T23:49:20.134Z,1.80
2023-05-13T23:51:49.379Z,2.00
2023-05-13T23:54:23.938Z,2.22
2023-05-13T23:57:10.487Z,2.15
2023-05-13T23:59:39.993Z,2.13
